createdAt,value
2018-09-11T00:00:59.496Z,952.30
2018-09-11T00:01:59.424Z,952.32
2018-09-11T00:02:59.318Z,952.27
2018-09-11T00:03:59.225Z,952.25
2018-09-11T00:04:59.233Z,952.29
2018-09-11T00:05:59.049Z,952.25
2018-09-11T00:06:58.969Z,952.29
2018-09-11T00:07:58.908Z,952.31
2018-09-11T00:08:58.776Z,952.26
2018-09-11T00:09:58.681Z,952.30
2018-09-11T00:10:58.590Z,952.31
2018-09-11T00:11:58.616Z,952.29
2018-09-11T00:12:58.408Z,952.33
2018-09-11T00:13:58.319Z,952.32
2018-09-11T00:14:58.232Z,952.30
2018-09-11T00:15:58.144Z,952.32
2018-09-11T00:16:58.066Z,952.32
2018-09-11T00:17:57.958Z,952.36
2018-09-11T00:18:57.963Z,952.31
2018-09-11T00:19:57.777Z,952.32
2018-09-11T00:20:57.683Z,952.33
2018-09-11T00:21:57.608Z,952.30
2018-09-11T00:22:57.500Z,952.31
2018-09-11T00:23:57.413Z,952.36
2018-09-11T00:24:57.350Z,952.39
2018-09-11T00:25:57.333Z,952.40
2018-09-11T00:26:57.160Z,952.41
2018-09-11T00:27:57.049Z,952.37
2018-09-11T00:28:56.958Z,952.37
2018-09-11T00:29:56.868Z,952.37
2018-09-11T00:30:56.775Z,952.36
2018-09-11T00:31:56.704Z,952.38
2018-09-11T00:32:56.691Z,952.40
2018-09-11T00:33:56.504Z,952.40
2018-09-11T00:34:56.412Z,952.38
2018-09-11T00:35:56.319Z,952.35
2018-09-11T00:36:56.253Z,952.38
2018-09-11T00:37:56.136Z,952.34
2018-09-11T00:38:56.052Z,952.34
2018-09-11T00:39:55.959Z,952.38
2018-09-11T00:40:55.868Z,952.41
2018-09-11T00:41:55.791Z,952.39
2018-09-11T00:42:55.687Z,952.42
2018-09-11T00:43:55.590Z,952.40
2018-09-11T00:44:55.501Z,952.44
2018-09-11T00:45:55.411Z,952.44
2018-09-11T00:46:55.342Z,952.43
2018-09-11T00:47:55.226Z,952.44
2018-09-11T00:48:55.140Z,952.48
2018-09-11T00:49:55.043Z,952.42
2018-09-11T00:50:54.957Z,952.43
2018-09-11T00:51:54.948Z,952.42
2018-09-11T00:52:54.774Z,952.42
2018-09-11T00:53:54.683Z,952.39
2018-09-11T00:54:54.588Z,952.39
2018-09-11T00:55:54.497Z,952.35
2018-09-11T00:56:54.423Z,952.33
2018-09-11T00:57:54.315Z,952.32
2018-09-11T00:58:54.224Z,952.35
2018-09-11T00:59:54.133Z,952.34
2018-09-11T01:00:54.041Z,952.33
2018-09-11T01:01:53.971Z,952.34
2018-09-11T01:02:53.862Z,952.32
2018-09-11T01:03:53.768Z,952.30
2018-09-11T01:04:53.672Z,952.35
2018-09-11T01:05:53.582Z,952.35
2018-09-11T01:06:53.505Z,952.30
2018-09-11T01:07:53.399Z,952.30
2018-09-11T01:08:53.313Z,952.33
2018-09-11T01:09:53.215Z,952.27
2018-09-11T01:10:53.126Z,952.26
2018-09-11T01:11:53.054Z,952.28
2018-09-11T01:12:52.944Z,952.24
2018-09-11T01:13:52.847Z,952.24
2018-09-11T01:14:52.760Z,952.22
2018-09-11T01:15:52.666Z,952.23
2018-09-11T01:16:52.577Z,952.27
2018-09-11T01:17:52.504Z,952.24
2018-09-11T01:18:52.405Z,952.22
2018-09-11T01:19:52.300Z,952.26
2018-09-11T01:20:52.215Z,952.24
2018-09-11T01:21:52.119Z,952.28
2018-09-11T01:22:52.048Z,952.30
2018-09-11T01:23:51.935Z,952.33
2018-09-11T01:24:51.842Z,952.34
2018-09-11T01:25:51.749Z,952.34
2018-09-11T01:26:51.663Z,952.35
2018-09-11T01:27:51.588Z,952.34
2018-09-11T01:28:51.490Z,952.36
2018-09-11T01:29:51.417Z,952.36
2018-09-11T01:30:51.295Z,952.36
2018-09-11T01:31:51.204Z,952.35
2018-09-11T01:32:51.126Z,952.44
2018-09-11T01:33:51.016Z,952.43
2018-09-11T01:34:50.931Z,952.45
2018-09-11T01:35:50.832Z,952.48
2018-09-11T01:36:50.743Z,952.52
2018-09-11T01:37:50.667Z,952.51
2018-09-11T01:38:50.560Z,952.49
2018-09-11T01:39:50.466Z,952.52
2018-09-11T01:40:50.374Z,952.52
2018-09-11T01:41:50.283Z,952.55
2018-09-11T01:42:50.207Z,952.52
2018-09-11T01:43:50.102Z,952.54
2018-09-11T01:44:50.011Z,952.56
2018-09-11T01:45:49.915Z,952.54
2018-09-11T01:46:49.825Z,952.52
2018-09-11T01:47:49.751Z,952.53
2018-09-11T01:48:49.643Z,952.61
2018-09-11T01:49:49.548Z,952.62
2018-09-11T01:50:49.458Z,952.67
2018-09-11T01:51:49.365Z,952.62
2018-09-11T01:52:49.287Z,952.61
2018-09-11T01:53:49.181Z,952.60
2018-09-11T01:54:49.094Z,952.61
2018-09-11T01:55:49.006Z,952.61
2018-09-11T01:56:48.905Z,952.62
2018-09-11T01:57:48.831Z,952.63
2018-09-11T01:58:48.720Z,952.62
2018-09-11T01:59:48.629Z,952.61
2018-09-11T02:00:48.537Z,952.61
2018-09-11T02:01:48.443Z,952.63
2018-09-11T02:02:48.371Z,952.61
2018-09-11T02:03:48.257Z,952.59
2018-09-11T02:04:48.168Z,952.61
2018-09-11T02:05:48.076Z,952.59
2018-09-11T02:06:47.983Z,952.59
2018-09-11T02:07:47.908Z,952.59
2018-09-11T02:08:47.801Z,952.57
2018-09-11T02:09:47.706Z,952.61
2018-09-11T02:10:47.613Z,952.61
2018-09-11T02:11:47.522Z,952.61
2018-09-11T02:12:47.445Z,952.57
2018-09-11T02:13:47.339Z,952.58
2018-09-11T02:14:47.245Z,952.60
2018-09-11T02:15:47.153Z,952.62
2018-09-11T02:16:47.060Z,952.61
2018-09-11T02:17:46.984Z,952.63
2018-09-11T02:18:46.873Z,952.62
2018-09-11T02:19:46.784Z,952.61
2018-09-11T02:20:46.688Z,952.60
2018-09-11T02:21:46.596Z,952.54
2018-09-11T02:22:46.523Z,952.56
2018-09-11T02:23:46.416Z,952.56
2018-09-11T02:24:46.322Z,952.56
2018-09-11T02:25:46.230Z,952.55
2018-09-11T02:26:46.138Z,952.54
2018-09-11T02:27:46.062Z,952.56
2018-09-11T02:28:45.954Z,952.58
2018-09-11T02:29:45.859Z,952.57
2018-09-11T02:30:45.767Z,952.59
2018-09-11T02:31:45.684Z,952.66
2018-09-11T02:32:45.600Z,952.63
2018-09-11T02:33:45.490Z,952.61
2018-09-11T02:34:45.395Z,952.60
2018-09-11T02:35:45.361Z,952.60
2018-09-11T02:36:45.215Z,952.64
2018-09-11T02:37:45.140Z,952.64
2018-09-11T02:38:45.037Z,952.66
2018-09-11T02:39:44.933Z,952.64
2018-09-11T02:40:44.843Z,952.68
2018-09-11T02:41:44.751Z,952.68
2018-09-11T02:42:44.676Z,952.70
2018-09-11T02:43:44.570Z,952.69
2018-09-11T02:44:44.469Z,952.72
2018-09-11T02:45:44.378Z,952.69
2018-09-11T02:46:44.283Z,952.67
2018-09-11T02:47:44.208Z,952.66
2018-09-11T02:48:44.100Z,952.66
2018-09-11T02:49:44.011Z,952.68
2018-09-11T02:50:43.938Z,952.68
2018-09-11T02:51:43.823Z,952.69
2018-09-11T02:52:44.158Z,952.66
2018-09-11T02:53:43.637Z,952.64
2018-09-11T02:54:43.548Z,952.63
2018-09-11T02:55:43.457Z,952.61
2018-09-11T02:56:43.360Z,952.65
2018-09-11T02:57:43.282Z,952.63
2018-09-11T02:58:43.178Z,952.63
2018-09-11T02:59:43.186Z,952.65
2018-09-11T03:00:42.988Z,952.65
2018-09-11T03:01:42.898Z,952.64
2018-09-11T03:02:42.805Z,952.61
2018-09-11T03:03:42.729Z,952.62
2018-09-11T03:04:42.620Z,952.61
2018-09-11T03:05:42.526Z,952.59
2018-09-11T03:06:42.538Z,952.58
2018-09-11T03:07:42.357Z,952.60
2018-09-11T03:08:42.250Z,952.61
2018-09-11T03:09:42.153Z,952.65
2018-09-11T03:10:42.062Z,952.68
2018-09-11T03:11:41.989Z,952.65
2018-09-11T03:12:41.879Z,952.66
2018-09-11T03:13:41.908Z,952.67
2018-09-11T03:14:41.691Z,952.69
2018-09-11T03:15:41.597Z,952.66
2018-09-11T03:16:41.506Z,952.65
2018-09-11T03:17:41.415Z,952.65
2018-09-11T03:18:41.376Z,952.60
2018-09-11T03:19:41.227Z,952.63
2018-09-11T03:20:41.235Z,952.62
2018-09-11T03:21:41.041Z,952.69
2018-09-11T03:22:40.951Z,952.63
2018-09-11T03:23:40.873Z,952.66
2018-09-11T03:24:40.762Z,952.67
2018-09-11T03:25:40.670Z,952.71
2018-09-11T03:26:40.577Z,952.71
2018-09-11T03:27:40.583Z,952.68
2018-09-11T03:28:40.409Z,952.69
2018-09-11T03:29:40.296Z,952.72
2018-09-11T03:30:40.208Z,952.75
2018-09-11T03:31:40.115Z,952.72
2018-09-11T03:32:40.020Z,952.74
2018-09-11T03:33:39.972Z,952.72
2018-09-11T03:34:39.938Z,952.72
2018-09-11T03:35:39.740Z,952.75
2018-09-11T03:36:39.647Z,952.80
2018-09-11T03:37:39.552Z,952.84
2018-09-11T03:38:39.480Z,952.80
2018-09-11T03:39:39.368Z,952.85
2018-09-11T03:40:39.274Z,952.85
2018-09-11T03:41:39.181Z,952.84
2018-09-11T03:42:39.088Z,952.82
2018-09-11T03:43:39.012Z,952.76
2018-09-11T03:44:38.905Z,952.79
2018-09-11T03:45:38.807Z,952.78
2018-09-11T03:46:38.712Z,952.76
2018-09-11T03:47:38.623Z,952.74
2018-09-11T03:48:38.648Z,952.72
2018-09-11T03:49:38.435Z,952.69
2018-09-11T03:50:38.345Z,952.66
2018-09-11T03:51:38.266Z,952.66
2018-09-11T03:52:38.156Z,952.60
2018-09-11T03:53:38.083Z,952.63
2018-09-11T03:54:38.091Z,952.67
2018-09-11T03:55:37.876Z,952.66
2018-09-11T03:56:37.784Z,952.69
2018-09-11T03:57:37.690Z,952.66
2018-09-11T03:58:37.613Z,952.73
2018-09-11T03:59:37.505Z,952.69
2018-09-11T04:00:37.413Z,952.70
2018-09-11T04:01:37.318Z,952.75
2018-09-11T04:02:37.224Z,952.74
2018-09-11T04:03:37.154Z,952.78
2018-09-11T04:04:37.043Z,952.77
2018-09-11T04:05:37.010Z,952.74
2018-09-11T04:06:36.851Z,952.77
2018-09-11T04:07:36.760Z,952.76
2018-09-11T04:08:36.681Z,952.73
2018-09-11T04:09:36.574Z,952.74
2018-09-11T04:10:36.478Z,952.78
2018-09-11T04:11:36.389Z,952.79
2018-09-11T04:12:36.291Z,952.78
2018-09-11T04:13:36.218Z,952.75
2018-09-11T04:14:36.107Z,952.76
2018-09-11T04:15:36.014Z,952.71
2018-09-11T04:16:35.920Z,952.72
2018-09-11T04:17:35.830Z,952.71
2018-09-11T04:18:35.750Z,952.72
2018-09-11T04:19:35.647Z,952.67
2018-09-11T04:20:35.553Z,952.73
2018-09-11T04:21:35.455Z,952.71
2018-09-11T04:22:35.366Z,952.72
2018-09-11T04:23:35.285Z,952.70
2018-09-11T04:24:35.178Z,952.70
2018-09-11T04:25:35.140Z,952.72
2018-09-11T04:26:34.989Z,952.70
2018-09-11T04:27:34.896Z,952.73
2018-09-11T04:28:34.824Z,952.72
2018-09-11T04:29:34.709Z,952.74
2018-09-11T04:30:34.616Z,952.74
2018-09-11T04:31:34.526Z,952.68
2018-09-11T04:32:34.430Z,952.74
2018-09-11T04:33:34.354Z,952.72
2018-09-11T04:34:34.247Z,952.71
2018-09-11T04:35:34.156Z,952.72
2018-09-11T04:36:34.146Z,952.72
2018-09-11T04:37:33.965Z,952.70
2018-09-11T04:38:33.893Z,952.69
2018-09-11T04:39:33.782Z,952.66
2018-09-11T04:40:33.684Z,952.68
2018-09-11T04:41:33.595Z,952.71
2018-09-11T04:42:33.501Z,952.68
2018-09-11T04:43:33.427Z,952.67
2018-09-11T04:44:33.317Z,952.66
2018-09-11T04:45:33.222Z,952.64
2018-09-11T04:46:33.129Z,952.64
2018-09-11T04:47:33.040Z,952.63
2018-09-11T04:48:32.961Z,952.60
2018-09-11T04:49:32.850Z,952.64
2018-09-11T04:50:32.755Z,952.63
2018-09-11T04:51:32.662Z,952.61
2018-09-11T04:52:32.571Z,952.61
2018-09-11T04:53:32.477Z,952.58
2018-09-11T04:54:32.400Z,952.59
2018-09-11T04:55:32.292Z,952.62
2018-09-11T04:56:32.199Z,952.59
2018-09-11T04:57:32.105Z,952.63
2018-09-11T04:58:32.016Z,952.61
2018-09-11T04:59:31.934Z,952.63
2018-09-11T05:00:31.824Z,952.60
2018-09-11T05:01:31.732Z,952.65
2018-09-11T05:02:31.637Z,952.66
2018-09-11T05:03:31.566Z,952.64
2018-09-11T05:04:31.470Z,952.63
2018-09-11T05:05:31.364Z,952.65
2018-09-11T05:06:31.266Z,952.64
2018-09-11T05:07:31.169Z,952.70
2018-09-11T05:08:31.081Z,952.71
2018-09-11T05:09:31.000Z,952.72
2018-09-11T05:10:30.888Z,952.76
2018-09-11T05:11:30.899Z,952.76
2018-09-11T05:12:30.706Z,952.76
2018-09-11T05:13:30.611Z,952.76
2018-09-11T05:14:30.536Z,952.77
2018-09-11T05:15:30.429Z,952.81
2018-09-11T05:16:30.333Z,952.78
2018-09-11T05:17:30.237Z,952.83
2018-09-11T05:18:30.242Z,952.80
2018-09-11T05:19:30.065Z,952.78
2018-09-11T05:20:29.961Z,952.80
2018-09-11T05:21:29.862Z,952.83
2018-09-11T05:22:29.769Z,952.86
2018-09-11T05:23:29.695Z,952.94
2018-09-11T05:24:29.601Z,952.96
2018-09-11T05:25:29.586Z,952.98
2018-09-11T05:26:29.399Z,953.02
2018-09-11T05:27:29.386Z,953.03
2018-09-11T05:28:29.211Z,953.06
2018-09-11T05:29:29.131Z,953.02
2018-09-11T05:30:29.024Z,953.07
2018-09-11T05:31:28.931Z,953.07
2018-09-11T05:32:28.936Z,953.04
2018-09-11T05:33:28.742Z,953.02
2018-09-11T05:34:28.663Z,953.05
2018-09-11T05:35:28.558Z,953.06
2018-09-11T05:36:28.462Z,953.03
2018-09-11T05:37:28.368Z,953.02
2018-09-11T05:38:28.280Z,952.99
2018-09-11T05:39:28.302Z,953.03
2018-09-11T05:40:28.090Z,953.07
2018-09-11T05:41:27.998Z,953.06
2018-09-11T05:42:27.903Z,953.10
2018-09-11T05:43:27.813Z,953.10
2018-09-11T05:44:27.733Z,953.12
2018-09-11T05:45:27.625Z,953.16
2018-09-11T05:46:27.628Z,953.17
2018-09-11T05:47:27.438Z,953.21
2018-09-11T05:48:27.348Z,953.21
2018-09-11T05:49:27.270Z,953.26
2018-09-11T05:50:27.161Z,953.28
2018-09-11T05:51:27.070Z,953.29
2018-09-11T05:52:26.977Z,953.31
2018-09-11T05:53:26.996Z,953.33
2018-09-11T05:54:26.806Z,953.34
2018-09-11T05:55:26.699Z,953.42
2018-09-11T05:56:26.604Z,953.44
2018-09-11T05:57:26.513Z,953.42
2018-09-11T05:58:26.508Z,953.43
2018-09-11T05:59:26.347Z,953.42
2018-09-11T06:00:26.339Z,953.46
2018-09-11T06:01:26.142Z,953.48
2018-09-11T06:02:26.055Z,953.45
2018-09-11T06:03:25.965Z,953.40
2018-09-11T06:04:25.886Z,953.38
2018-09-11T06:05:25.777Z,953.40
2018-09-11T06:06:25.682Z,953.38
2018-09-11T06:07:25.591Z,953.36
2018-09-11T06:08:25.501Z,953.36
2018-09-11T06:09:25.429Z,953.35
2018-09-11T06:10:25.317Z,953.40
2018-09-11T06:11:25.225Z,953.41
2018-09-11T06:12:25.136Z,953.46
2018-09-11T06:13:25.045Z,953.48
2018-09-11T06:14:24.966Z,953.52
2018-09-11T06:15:24.859Z,953.52
2018-09-11T06:16:24.833Z,953.58
2018-09-11T06:17:24.676Z,953.59
2018-09-11T06:18:24.584Z,953.59
2018-09-11T06:19:24.507Z,953.61
2018-09-11T06:20:24.406Z,953.68
2018-09-11T06:21:24.424Z,953.70
2018-09-11T06:22:24.225Z,953.74
2018-09-11T06:23:24.132Z,953.77
2018-09-11T06:24:24.064Z,953.80
2018-09-11T06:25:23.950Z,953.87
2018-09-11T06:26:23.861Z,953.96
2018-09-11T06:27:23.770Z,953.94
2018-09-11T06:28:23.678Z,953.96
2018-09-11T06:29:23.610Z,953.99
2018-09-11T06:30:23.494Z,953.95
2018-09-11T06:31:23.405Z,953.96
2018-09-11T06:32:23.318Z,953.95
2018-09-11T06:33:23.228Z,954.03
2018-09-11T06:34:23.151Z,954.01
2018-09-11T06:35:23.050Z,954.21
2018-09-11T06:36:22.953Z,954.00
2018-09-11T06:37:22.865Z,954.02
2018-09-11T06:38:22.775Z,954.00
2018-09-11T06:39:22.685Z,954.05
2018-09-11T06:40:22.614Z,954.23
2018-09-11T06:41:22.504Z,954.41
2018-09-11T06:42:22.419Z,954.29
2018-09-11T06:43:22.328Z,954.26
2018-09-11T06:44:22.240Z,954.34
2018-09-11T06:45:22.166Z,954.38
2018-09-11T06:46:22.063Z,954.30
2018-09-11T06:47:21.977Z,954.25
2018-09-11T06:48:21.881Z,954.24
2018-09-11T06:49:21.799Z,954.18
2018-09-11T06:50:21.722Z,954.12
2018-09-11T06:51:21.619Z,954.21
2018-09-11T06:52:21.527Z,954.24
2018-09-11T06:53:21.444Z,954.22
2018-09-11T06:54:21.355Z,954.26
2018-09-11T06:55:21.282Z,954.28
2018-09-11T06:56:21.179Z,954.30
2018-09-11T06:57:21.089Z,954.35
2018-09-11T06:58:21.002Z,954.46
2018-09-11T06:59:20.913Z,954.44
2018-09-11T07:00:20.842Z,954.51
2018-09-11T07:01:20.735Z,954.59
2018-09-11T07:02:20.650Z,954.56
2018-09-11T07:03:20.562Z,954.71
2018-09-11T07:04:20.474Z,954.76
2018-09-11T07:05:20.404Z,955.00
2018-09-11T07:06:20.306Z,955.31
2018-09-11T07:07:20.227Z,955.69
2018-09-11T07:08:20.128Z,955.97
2018-09-11T07:09:20.035Z,956.84
2018-09-11T07:10:19.969Z,959.10
2018-09-11T07:11:19.862Z,967.38
2018-09-11T07:12:19.772Z,966.77
2018-09-11T07:13:19.685Z,963.72
2018-09-11T07:14:19.599Z,965.48
2018-09-11T07:15:19.526Z,964.28
2018-09-11T07:16:19.422Z,963.24
2018-09-11T07:17:19.334Z,967.49
2018-09-11T07:18:19.248Z,964.17
2018-09-11T07:19:19.159Z,961.48
2018-09-11T07:20:19.315Z,960.72
2018-09-11T07:21:18.987Z,959.88
2018-09-11T07:22:18.900Z,958.53
2018-09-11T07:23:18.814Z,958.21
2018-09-11T07:24:18.726Z,957.97
2018-09-11T07:25:18.657Z,957.28
2018-09-11T07:26:18.553Z,957.22
2018-09-11T07:27:18.466Z,956.17
2018-09-11T07:28:18.386Z,956.31
2018-09-11T07:29:18.297Z,955.93
2018-09-11T07:30:18.373Z,955.82
2018-09-11T07:31:18.158Z,955.38
2018-09-11T07:32:18.059Z,955.74
2018-09-11T07:33:17.951Z,956.66
2018-09-11T07:34:17.865Z,956.68
2018-09-11T07:35:17.799Z,956.26
2018-09-11T07:36:17.721Z,956.41
2018-09-11T07:37:17.607Z,956.55
2018-09-11T07:38:17.527Z,956.31
2018-09-11T07:39:17.439Z,954.89
2018-09-11T07:40:17.368Z,955.09
2018-09-11T07:41:17.267Z,955.98
2018-09-11T07:42:17.181Z,956.13
2018-09-11T07:43:17.096Z,955.84
2018-09-11T07:44:17.116Z,956.25
2018-09-11T07:45:17.003Z,956.01
2018-09-11T07:46:16.843Z,955.71
2018-09-11T07:47:16.763Z,956.10
2018-09-11T07:48:16.676Z,955.94
2018-09-11T07:49:16.585Z,955.90
2018-09-11T07:50:16.521Z,955.99
2018-09-11T07:51:16.533Z,955.99
2018-09-11T07:52:16.337Z,955.93
2018-09-11T07:53:16.249Z,955.80
2018-09-11T07:54:16.167Z,955.65
2018-09-11T07:55:16.099Z,955.53
2018-09-11T07:56:16.005Z,955.70
2018-09-11T07:57:15.912Z,955.65
2018-09-11T07:58:15.934Z,954.70
2018-09-11T07:59:15.751Z,954.67
2018-09-11T08:00:15.679Z,955.65
2018-09-11T08:01:15.589Z,955.65
2018-09-11T08:02:15.498Z,955.63
2018-09-11T08:03:15.413Z,955.59
2018-09-11T08:04:15.327Z,955.68
2018-09-11T08:05:19.763Z,955.68
2018-09-11T08:06:15.163Z,955.65
2018-09-11T08:07:15.082Z,955.65
2018-09-11T08:08:14.996Z,955.88
2018-09-11T08:09:14.918Z,955.59
2018-09-11T08:10:14.847Z,955.49
2018-09-11T08:11:14.749Z,955.35
2018-09-11T08:12:14.766Z,955.16
2018-09-11T08:13:14.580Z,955.19
2018-09-11T08:14:14.503Z,955.10
2018-09-11T08:15:14.438Z,955.09
2018-09-11T08:16:14.341Z,955.21
2018-09-11T08:17:14.252Z,955.37
2018-09-11T08:18:14.171Z,955.89
2018-09-11T08:19:14.088Z,956.82
2018-09-11T08:20:14.025Z,958.26
2018-09-11T08:21:13.921Z,957.08
2018-09-11T08:22:13.837Z,955.53
2018-09-11T08:23:13.756Z,955.07
2018-09-11T08:24:13.680Z,955.01
2018-09-11T08:25:13.591Z,955.03
2018-09-11T08:26:13.522Z,955.01
2018-09-11T08:27:13.425Z,954.98
2018-09-11T08:28:13.339Z,954.98
2018-09-11T08:29:13.314Z,954.89
2018-09-11T08:30:13.176Z,954.78
2018-09-11T08:31:13.109Z,954.82
2018-09-11T08:32:13.011Z,954.78
2018-09-11T08:33:12.927Z,954.69
2018-09-11T08:34:12.843Z,954.72
2018-09-11T08:35:12.775Z,954.67
2018-09-11T08:36:12.695Z,954.72
2018-09-11T08:37:12.603Z,954.74
2018-09-11T08:38:12.513Z,954.77
2018-09-11T08:39:12.431Z,954.82
2018-09-11T08:40:12.354Z,954.79
2018-09-11T08:41:12.304Z,954.78
2018-09-11T08:42:12.185Z,954.78
2018-09-11T08:43:12.104Z,954.61
2018-09-11T08:44:12.022Z,954.65
2018-09-11T08:45:11.947Z,954.71
2018-09-11T08:46:11.874Z,954.79
2018-09-11T08:47:11.774Z,954.82
2018-09-11T08:48:11.695Z,954.84
2018-09-11T08:49:11.614Z,954.82
2018-09-11T08:50:11.535Z,954.90
2018-09-11T08:51:11.466Z,954.82
2018-09-11T08:52:11.381Z,954.94
2018-09-11T08:53:11.287Z,954.77
2018-09-11T08:54:11.201Z,954.78
2018-09-11T08:55:11.126Z,954.82
2018-09-11T08:56:11.057Z,954.99
2018-09-11T08:57:10.960Z,954.96
2018-09-11T08:58:10.880Z,955.02
2018-09-11T08:59:10.798Z,955.00
2018-09-11T09:00:10.717Z,955.07
2018-09-11T09:01:10.650Z,955.01
2018-09-11T09:02:10.849Z,955.01
2018-09-11T09:03:10.470Z,955.04
2018-09-11T09:04:10.391Z,955.02
2018-09-11T09:05:10.313Z,955.03
2018-09-11T09:06:10.245Z,954.95
2018-09-11T09:07:10.148Z,954.88
2018-09-11T09:08:10.063Z,954.82
2018-09-11T09:09:09.981Z,954.93
2018-09-11T09:10:09.987Z,954.94
2018-09-11T09:11:09.835Z,954.80
2018-09-11T09:12:09.742Z,954.75
2018-09-11T09:13:09.654Z,954.74
2018-09-11T09:14:09.578Z,954.77
2018-09-11T09:15:09.505Z,954.72
2018-09-11T09:16:09.433Z,954.71
2018-09-11T09:17:09.332Z,954.68
2018-09-11T09:18:09.253Z,954.65
2018-09-11T09:19:09.171Z,954.64
2018-09-11T09:20:09.089Z,954.59
2018-09-11T09:21:09.022Z,954.66
2018-09-11T09:22:08.943Z,954.62
2018-09-11T09:23:08.847Z,954.60
2018-09-11T09:24:08.770Z,954.64
2018-09-11T09:25:08.686Z,954.61
2018-09-11T09:26:08.625Z,954.51
2018-09-11T09:27:08.529Z,954.57
2018-09-11T09:28:08.447Z,954.51
2018-09-11T09:29:08.365Z,954.52
2018-09-11T09:30:08.285Z,954.51
2018-09-11T09:31:08.219Z,954.54
2018-09-11T09:32:08.122Z,954.47
2018-09-11T09:33:08.044Z,954.51
2018-09-11T09:34:07.959Z,954.45
2018-09-11T09:35:07.885Z,954.44
2018-09-11T09:36:07.820Z,954.43
2018-09-11T09:37:07.721Z,954.42
2018-09-11T09:38:07.639Z,954.42
2018-09-11T09:39:07.559Z,954.41
2018-09-11T09:40:07.479Z,954.45
2018-09-11T09:41:07.412Z,954.46
2018-09-11T09:42:07.320Z,954.46
2018-09-11T09:43:07.245Z,954.51
2018-09-11T09:44:07.232Z,954.51
2018-09-11T09:45:07.077Z,954.52
2018-09-11T09:46:07.012Z,954.49
2018-09-11T09:47:06.916Z,954.49
2018-09-11T09:48:06.833Z,954.44
2018-09-11T09:49:06.755Z,954.48
2018-09-11T09:50:06.672Z,954.55
2018-09-11T09:51:06.613Z,954.50
2018-09-11T09:52:06.548Z,954.45
2018-09-11T09:53:06.433Z,954.44
2018-09-11T09:54:06.351Z,954.52
2018-09-11T09:55:06.277Z,954.44
2018-09-11T09:56:06.230Z,954.47
2018-09-11T09:57:06.110Z,954.49
2018-09-11T09:58:06.034Z,954.50
2018-09-11T09:59:05.950Z,954.59
2018-09-11T10:00:05.875Z,954.59
2018-09-11T10:01:05.812Z,954.56
2018-09-11T10:02:05.717Z,954.62
2018-09-11T10:03:05.633Z,954.62
2018-09-11T10:04:05.554Z,954.55
2018-09-11T10:05:05.471Z,954.53
2018-09-11T10:06:05.405Z,954.44
2018-09-11T10:07:05.310Z,954.50
2018-09-11T10:08:05.231Z,954.53
2018-09-11T10:09:05.149Z,954.55
2018-09-11T10:10:05.077Z,954.48
2018-09-11T10:11:04.997Z,954.56
2018-09-11T10:12:04.928Z,954.55
2018-09-11T10:13:04.833Z,954.52
2018-09-11T10:14:04.750Z,954.51
2018-09-11T10:15:04.673Z,954.52
2018-09-11T10:16:04.612Z,954.56
2018-09-11T10:17:04.511Z,954.61
2018-09-11T10:18:04.433Z,954.66
2018-09-11T10:19:04.356Z,954.64
2018-09-11T10:20:04.288Z,954.64
2018-09-11T10:21:04.192Z,954.68
2018-09-11T10:22:04.134Z,954.65
2018-09-11T10:23:04.029Z,954.74
2018-09-11T10:24:03.951Z,954.73
2018-09-11T10:25:03.872Z,954.68
2018-09-11T10:26:03.793Z,954.77
2018-09-11T10:27:03.730Z,954.74
2018-09-11T10:28:03.632Z,954.79
2018-09-11T10:29:03.555Z,954.74
2018-09-11T10:30:03.471Z,954.72
2018-09-11T10:31:03.395Z,954.88
2018-09-11T10:32:03.418Z,954.87
2018-09-11T10:33:03.228Z,954.86
2018-09-11T10:34:03.159Z,954.90
2018-09-11T10:35:03.074Z,954.97
2018-09-11T10:36:02.994Z,955.05
2018-09-11T10:37:02.929Z,954.98
2018-09-11T10:38:02.834Z,955.09
2018-09-11T10:39:02.758Z,955.16
2018-09-11T10:40:02.674Z,955.22
2018-09-11T10:41:02.596Z,955.18
2018-09-11T10:42:02.537Z,955.10
2018-09-11T10:43:02.444Z,955.07
2018-09-11T10:44:02.356Z,954.91
2018-09-11T10:45:02.329Z,955.09
2018-09-11T10:46:02.294Z,955.03
2018-09-11T10:47:02.137Z,954.93
2018-09-11T10:48:02.040Z,954.95
2018-09-11T10:49:01.959Z,954.96
2018-09-11T10:50:01.883Z,954.97
2018-09-11T10:51:01.803Z,954.99
2018-09-11T10:52:01.740Z,955.00
2018-09-11T10:53:01.753Z,955.05
2018-09-11T10:54:01.562Z,954.95
2018-09-11T10:55:01.486Z,954.78
2018-09-11T10:56:01.409Z,954.89
2018-09-11T10:57:01.341Z,954.82
2018-09-11T10:58:01.246Z,954.77
2018-09-11T10:59:01.167Z,954.63
2018-09-11T11:00:01.194Z,954.46
2018-09-11T11:01:01.011Z,954.46
2018-09-11T11:02:00.944Z,954.70
2018-09-11T11:03:00.851Z,954.70
2018-09-11T11:04:00.770Z,954.45
2018-09-11T11:05:00.691Z,954.41
2018-09-11T11:06:00.610Z,954.14
2018-09-11T11:07:00.633Z,954.19
2018-09-11T11:08:00.451Z,954.19
2018-09-11T11:09:00.368Z,954.16
2018-09-11T11:10:00.290Z,954.21
2018-09-11T11:11:00.215Z,954.24
2018-09-11T11:12:00.143Z,954.19
2018-09-11T11:13:00.047Z,954.11
2018-09-11T11:14:00.067Z,954.12
2018-09-11T11:14:59.889Z,954.13
2018-09-11T11:15:59.801Z,954.13
2018-09-11T11:16:59.759Z,954.12
2018-09-11T11:17:59.641Z,954.15
2018-09-11T11:18:59.576Z,954.20
2018-09-11T11:19:59.474Z,954.14
2018-09-11T11:20:59.503Z,954.16
2018-09-11T11:21:59.326Z,954.20
2018-09-11T11:22:59.235Z,954.21
2018-09-11T11:23:59.147Z,954.23
2018-09-11T11:24:59.066Z,954.29
2018-09-11T11:25:58.981Z,954.21
2018-09-11T11:26:58.950Z,954.18
2018-09-11T11:27:58.926Z,954.20
2018-09-11T11:28:58.742Z,954.21
2018-09-11T11:29:58.654Z,954.20
2018-09-11T11:30:58.569Z,954.17
2018-09-11T11:31:58.505Z,954.17
2018-09-11T11:32:58.405Z,954.22
2018-09-11T11:33:58.318Z,954.24
2018-09-11T11:34:58.336Z,954.35
2018-09-11T11:35:58.211Z,954.40
2018-09-11T11:36:58.400Z,954.29
2018-09-11T11:37:57.986Z,954.21
2018-09-11T11:38:57.903Z,954.22
2018-09-11T11:39:57.822Z,954.14
2018-09-11T11:40:57.760Z,954.10
2018-09-11T11:41:57.675Z,954.10
2018-09-11T11:42:57.570Z,954.07
2018-09-11T11:43:57.494Z,954.12
2018-09-11T11:44:57.411Z,954.03
2018-09-11T11:45:57.327Z,954.02
2018-09-11T11:46:57.259Z,954.01
2018-09-11T11:47:57.160Z,954.09
2018-09-11T11:48:57.077Z,954.04
2018-09-11T11:49:56.996Z,954.06
2018-09-11T11:50:56.909Z,954.06
2018-09-11T11:51:56.842Z,953.97
2018-09-11T11:52:56.743Z,954.07
2018-09-11T11:53:56.659Z,954.03
2018-09-11T11:54:56.600Z,953.95
2018-09-11T11:55:56.499Z,953.94
2018-09-11T11:56:56.426Z,954.00
2018-09-11T11:57:56.328Z,954.01
2018-09-11T11:58:56.245Z,954.00
2018-09-11T11:59:56.160Z,953.98
2018-09-11T12:00:56.078Z,953.99
2018-09-11T12:01:56.042Z,953.93
2018-09-11T12:02:55.930Z,953.91
2018-09-11T12:03:55.825Z,953.89
2018-09-11T12:04:55.742Z,953.89
2018-09-11T12:05:55.662Z,953.87
2018-09-11T12:06:55.579Z,953.87
2018-09-11T12:07:55.526Z,953.83
2018-09-11T12:08:55.412Z,953.87
2018-09-11T12:09:55.328Z,953.91
2018-09-11T12:10:55.243Z,953.86
2018-09-11T12:11:55.161Z,953.81
2018-09-11T12:12:55.092Z,953.80
2018-09-11T12:13:55.000Z,953.81
2018-09-11T12:14:54.910Z,953.86
2018-09-11T12:15:54.826Z,953.87
2018-09-11T12:16:54.773Z,953.88
2018-09-11T12:17:54.678Z,953.88
2018-09-11T12:18:54.576Z,953.88
2018-09-11T12:19:54.494Z,953.89
2018-09-11T12:20:54.413Z,953.91
2018-09-11T12:21:54.338Z,953.87
2018-09-11T12:22:54.264Z,953.88
2018-09-11T12:23:54.166Z,953.88
2018-09-11T12:24:54.077Z,953.82
2018-09-11T12:25:54.001Z,953.83
2018-09-11T12:26:53.942Z,953.79
2018-09-11T12:27:53.852Z,953.83